Terminal Aerodrome Forecast
Issued by NWS

Home | Current Version | Previous Version | Text Only | Print | Product List | Glossary On
Versions: 1 2 3 4 5 6 7 8 9 10 11 12 13 14 15 16
363
FTPA31 PHFO 250536
TAFHLI
TAF
PHLI 250536Z 2506/2606 04018G25KT P6SM VCSH SCT025 BKN045
      TEMPO 2506/2510 04018KT
     FM251900 04020G30KT P6SM VCSH SCT025 BKN045=

USA.gov is the U.S. government's official web portal to all federal, state and local government web resources and services.